createdAt,value
2022-12-03T00:00:08.886Z,6.40
2022-12-03T00:01:04.886Z,6.80
2022-12-03T00:02:03.906Z,6.10
2022-12-03T00:03:04.203Z,6.80
2022-12-03T00:04:03.997Z,6.70
2022-12-03T00:05:03.833Z,6.60
2022-12-03T00:06:03.831Z,6.30
2022-12-03T00:07:03.810Z,6.40
2022-12-03T00:08:04.059Z,7.20
2022-12-03T00:09:03.795Z,6.80
2022-12-03T00:10:03.771Z,6.40
2022-12-03T00:11:03.761Z,6.50
2022-12-03T00:12:03.756Z,5.80
2022-12-03T00:13:03.943Z,6.10
2022-12-03T00:14:03.928Z,6.60
2022-12-03T00:15:03.710Z,6.20
2022-12-03T00:16:03.779Z,6.40
2022-12-03T00:17:03.681Z,6.00
2022-12-03T00:18:03.919Z,6.20
2022-12-03T00:19:03.667Z,6.30
2022-12-03T00:20:03.659Z,6.20
2022-12-03T00:21:03.639Z,5.80
2022-12-03T00:22:03.627Z,5.80
2022-12-03T00:23:03.834Z,6.00
2022-12-03T00:24:03.604Z,6.40
2022-12-03T00:25:03.777Z,6.50
2022-12-03T00:26:03.586Z,6.10
2022-12-03T00:27:03.566Z,6.20
2022-12-03T00:28:03.778Z,6.10
2022-12-03T00:29:03.536Z,6.50
2022-12-03T00:30:03.536Z,6.20
2022-12-03T00:31:03.797Z,5.90
2022-12-03T00:32:03.506Z,6.40
2022-12-03T00:33:03.688Z,6.60
2022-12-03T00:34:03.674Z,6.40
2022-12-03T00:35:03.474Z,6.30
2022-12-03T00:36:03.704Z,6.20
2022-12-03T00:37:03.435Z,6.20
2022-12-03T00:38:03.632Z,5.90
2022-12-03T00:39:03.413Z,6.70
2022-12-03T00:40:03.405Z,6.90
2022-12-03T00:41:03.396Z,7.00
2022-12-03T00:42:03.375Z,5.60
2022-12-03T00:43:03.383Z,6.00
2022-12-03T00:44:03.351Z,6.40
2022-12-03T00:45:03.332Z,6.00
2022-12-03T00:46:03.378Z,6.20
2022-12-03T00:47:03.374Z,6.00
2022-12-03T00:48:03.492Z,6.50
2022-12-03T00:49:03.493Z,5.80
2022-12-03T00:50:03.272Z,6.70
2022-12-03T00:51:03.263Z,6.00
2022-12-03T00:52:03.252Z,6.30
2022-12-03T00:53:03.440Z,6.20
2022-12-03T00:54:03.234Z,6.40
2022-12-03T00:55:03.422Z,7.10
2022-12-03T00:56:03.212Z,6.50
2022-12-03T00:57:03.192Z,6.20
2022-12-03T00:58:03.178Z,6.30
2022-12-03T00:59:03.167Z,6.60
2022-12-03T01:00:03.194Z,6.60
2022-12-03T01:01:03.138Z,6.10
2022-12-03T01:02:03.152Z,6.10
2022-12-03T01:03:03.106Z,6.70
2022-12-03T01:04:03.111Z,6.70
2022-12-03T01:05:03.150Z,6.30
2022-12-03T01:06:03.097Z,6.10
2022-12-03T01:07:03.056Z,6.50
2022-12-03T01:08:03.171Z,6.20
2022-12-03T01:09:03.037Z,6.10
2022-12-03T01:10:03.033Z,7.00
2022-12-03T01:11:03.210Z,6.30
2022-12-03T01:12:02.996Z,6.40
2022-12-03T01:13:02.993Z,6.70
2022-12-03T01:14:02.975Z,7.20
2022-12-03T01:15:03.219Z,6.30
2022-12-03T01:16:03.058Z,6.60
2022-12-03T01:17:02.953Z,6.50
2022-12-03T01:18:02.929Z,6.50
2022-12-03T01:19:02.922Z,6.60
2022-12-03T01:20:02.909Z,6.70
2022-12-03T01:21:03.076Z,6.40
2022-12-03T01:22:02.883Z,6.80
2022-12-03T01:23:02.864Z,7.40
2022-12-03T01:24:02.849Z,6.50
2022-12-03T01:25:02.841Z,6.80
2022-12-03T01:26:02.861Z,6.40
2022-12-03T01:27:02.825Z,5.70
2022-12-03T01:28:02.803Z,7.60
2022-12-03T01:29:02.781Z,6.10
2022-12-03T01:30:02.780Z,6.90
2022-12-03T01:31:02.830Z,6.80
2022-12-03T01:32:02.780Z,7.40
2022-12-03T01:33:02.742Z,6.30
2022-12-03T01:34:02.728Z,7.00
2022-12-03T01:35:02.709Z,6.80
2022-12-03T01:36:02.699Z,6.90
2022-12-03T01:37:02.729Z,6.90
2022-12-03T01:38:02.686Z,6.40
2022-12-03T01:39:02.668Z,6.90
2022-12-03T01:40:02.657Z,6.70
2022-12-03T01:41:04.869Z,7.90
2022-12-03T01:42:03.677Z,6.80
2022-12-03T01:43:02.629Z,6.50
2022-12-03T01:44:02.606Z,7.00
2022-12-03T01:45:02.826Z,7.10
2022-12-03T01:46:02.585Z,7.40
2022-12-03T01:47:02.600Z,7.20
2022-12-03T01:48:02.553Z,6.90
2022-12-03T01:49:02.538Z,6.90
2022-12-03T01:50:02.738Z,7.80
2022-12-03T01:51:02.513Z,5.90
2022-12-03T01:52:02.509Z,6.90
2022-12-03T01:53:02.703Z,6.80
2022-12-03T01:54:02.693Z,7.00
2022-12-03T01:55:02.675Z,6.90
2022-12-03T01:56:02.453Z,6.60
2022-12-03T01:57:02.433Z,6.60
2022-12-03T01:58:02.463Z,6.50
2022-12-03T01:59:02.624Z,6.80
2022-12-03T02:00:02.408Z,6.80
2022-12-03T02:01:02.398Z,7.20
2022-12-03T02:02:02.492Z,7.30
2022-12-03T02:03:02.355Z,6.70
2022-12-03T02:04:02.597Z,6.70
2022-12-03T02:05:02.544Z,6.90
2022-12-03T02:06:02.330Z,6.90
2022-12-03T02:07:02.310Z,6.80
2022-12-03T02:08:02.589Z,7.10
2022-12-03T02:09:02.292Z,7.30
2022-12-03T02:10:02.501Z,8.00
2022-12-03T02:11:02.270Z,7.60
2022-12-03T02:12:02.264Z,7.90
2022-12-03T02:13:02.239Z,6.50
2022-12-03T02:14:02.448Z,7.90
2022-12-03T02:15:02.418Z,7.20
2022-12-03T02:16:02.265Z,6.90
2022-12-03T02:17:02.178Z,6.30
2022-12-03T02:18:02.396Z,7.20
2022-12-03T02:19:02.161Z,7.30
2022-12-03T02:20:02.155Z,7.10
2022-12-03T02:21:02.136Z,7.80
2022-12-03T02:22:02.129Z,7.50
2022-12-03T02:23:02.287Z,7.00
2022-12-03T02:24:02.109Z,6.80
2022-12-03T02:25:02.089Z,7.20
2022-12-03T02:26:02.267Z,7.00
2022-12-03T02:27:02.267Z,7.20
2022-12-03T02:28:02.064Z,7.70
2022-12-03T02:29:02.235Z,7.50
2022-12-03T02:30:02.040Z,6.90
2022-12-03T02:31:02.059Z,7.50
2022-12-03T02:32:02.024Z,7.10
2022-12-03T02:33:01.993Z,7.40
2022-12-03T02:34:02.004Z,7.20
2022-12-03T02:35:01.993Z,7.30
2022-12-03T02:36:03.851Z,7.30
2022-12-03T02:37:01.943Z,7.10
2022-12-03T02:38:02.145Z,6.90
2022-12-03T02:39:01.912Z,7.10
2022-12-03T02:40:01.904Z,7.50
2022-12-03T02:41:01.914Z,8.20
2022-12-03T02:42:01.894Z,7.20
2022-12-03T02:43:01.862Z,7.20
2022-12-03T02:44:02.072Z,8.00
2022-12-03T02:45:05.127Z,7.90
2022-12-03T02:46:02.035Z,7.60
2022-12-03T02:47:01.844Z,7.70
2022-12-03T02:48:01.810Z,7.00
2022-12-03T02:49:01.789Z,7.90
2022-12-03T02:50:01.999Z,7.10
2022-12-03T02:51:01.763Z,7.10
2022-12-03T02:52:01.759Z,7.20
2022-12-03T02:53:02.019Z,8.20
2022-12-03T02:54:01.732Z,7.50
2022-12-03T02:55:01.718Z,7.60
2022-12-03T02:56:01.705Z,7.60
2022-12-03T02:57:01.678Z,7.50
2022-12-03T02:58:01.857Z,7.00
2022-12-03T02:59:01.661Z,7.20
2022-12-03T03:00:01.659Z,7.90
2022-12-03T03:01:01.660Z,7.60
2022-12-03T03:02:01.959Z,6.90
2022-12-03T03:03:01.621Z,7.30
2022-12-03T03:04:01.607Z,7.40
2022-12-03T03:05:01.594Z,7.40
2022-12-03T03:06:01.575Z,7.80
2022-12-03T03:07:01.745Z,7.10
2022-12-03T03:08:01.652Z,6.90
2022-12-03T03:09:01.734Z,6.70
2022-12-03T03:10:01.527Z,6.90
2022-12-03T03:11:01.748Z,6.90
2022-12-03T03:12:01.509Z,7.40
2022-12-03T03:13:01.522Z,7.80
2022-12-03T03:14:01.476Z,7.70
2022-12-03T03:15:01.475Z,6.90
2022-12-03T03:16:01.745Z,7.20
2022-12-03T03:17:01.456Z,7.50
2022-12-03T03:18:01.431Z,7.30
2022-12-03T03:19:01.420Z,8.10
2022-12-03T03:20:01.432Z,7.50
2022-12-03T03:21:01.411Z,7.90
2022-12-03T03:22:01.602Z,7.40
2022-12-03T03:23:01.371Z,7.40
2022-12-03T03:24:01.576Z,7.30
2022-12-03T03:25:01.342Z,7.00
2022-12-03T03:26:01.354Z,7.40
2022-12-03T03:27:01.322Z,7.00
2022-12-03T03:28:01.531Z,7.60
2022-12-03T03:29:01.311Z,6.90
2022-12-03T03:30:01.270Z,7.40
2022-12-03T03:31:01.270Z,8.00
2022-12-03T03:32:01.269Z,7.70
2022-12-03T03:33:01.484Z,7.00
2022-12-03T03:34:01.219Z,7.60
2022-12-03T03:35:01.219Z,7.10
2022-12-03T03:36:01.211Z,7.30
2022-12-03T03:37:01.197Z,8.00
2022-12-03T03:38:01.386Z,7.60
2022-12-03T03:39:01.177Z,7.40
2022-12-03T03:40:01.152Z,7.20
2022-12-03T03:41:01.168Z,6.80
2022-12-03T03:42:01.126Z,6.70
2022-12-03T03:43:01.334Z,7.20
2022-12-03T03:44:01.098Z,7.70
2022-12-03T03:45:01.097Z,7.70
2022-12-03T03:46:01.341Z,7.30
2022-12-03T03:47:01.074Z,7.40
2022-12-03T03:48:01.046Z,7.90
2022-12-03T03:49:01.056Z,7.90
2022-12-03T03:50:01.046Z,7.60
2022-12-03T03:51:01.247Z,7.60
2022-12-03T03:52:01.005Z,7.30
2022-12-03T03:53:01.016Z,7.00
2022-12-03T03:54:01.214Z,6.90
2022-12-03T03:55:01.195Z,7.00
2022-12-03T03:56:00.952Z,7.80
2022-12-03T03:57:00.946Z,7.30
2022-12-03T03:58:00.939Z,7.30
2022-12-03T03:59:00.933Z,7.40
2022-12-03T04:00:00.902Z,7.20
2022-12-03T04:01:01.149Z,8.60
2022-12-03T04:02:00.941Z,7.10
2022-12-03T04:03:00.905Z,7.40
2022-12-03T04:04:00.933Z,6.70
2022-12-03T04:05:00.852Z,7.50
2022-12-03T04:06:00.869Z,7.20
2022-12-03T04:07:00.820Z,7.10
2022-12-03T04:08:00.856Z,7.60
2022-12-03T04:09:00.801Z,6.70
2022-12-03T04:10:00.999Z,7.80
2022-12-03T04:11:00.794Z,7.90
2022-12-03T04:12:00.749Z,7.00
2022-12-03T04:13:00.751Z,7.70
2022-12-03T04:14:00.997Z,7.40
2022-12-03T04:15:00.718Z,7.40
2022-12-03T04:16:00.737Z,7.20
2022-12-03T04:17:00.784Z,6.80
2022-12-03T04:18:00.697Z,7.10
2022-12-03T04:19:00.885Z,7.10
2022-12-03T04:20:00.657Z,7.90
2022-12-03T04:21:00.641Z,7.80
2022-12-03T04:22:00.838Z,7.20
2022-12-03T04:23:00.616Z,8.30
2022-12-03T04:24:00.628Z,8.00
2022-12-03T04:25:00.787Z,7.40
2022-12-03T04:26:00.592Z,7.10
2022-12-03T04:27:00.565Z,7.10
2022-12-03T04:28:00.555Z,7.60
2022-12-03T04:29:00.765Z,7.70
2022-12-03T04:30:00.534Z,7.40
2022-12-03T04:31:00.579Z,7.10
2022-12-03T04:32:00.507Z,7.30
2022-12-03T04:33:00.527Z,7.20
2022-12-03T04:34:00.726Z,7.10
2022-12-03T04:35:00.464Z,7.80
2022-12-03T04:36:00.542Z,7.10
2022-12-03T04:37:00.445Z,7.50
2022-12-03T04:38:00.435Z,8.10
2022-12-03T04:39:00.715Z,8.10
2022-12-03T04:40:00.657Z,7.40
2022-12-03T04:41:00.423Z,7.40
2022-12-03T04:42:00.391Z,7.90
2022-12-03T04:43:00.368Z,7.30
2022-12-03T04:44:00.363Z,7.30
2022-12-03T04:45:00.580Z,7.40
2022-12-03T04:46:00.358Z,7.40
2022-12-03T04:47:00.312Z,8.00
2022-12-03T04:48:00.329Z,7.60
2022-12-03T04:49:00.510Z,8.20
2022-12-03T04:50:00.324Z,7.30
2022-12-03T04:51:00.266Z,7.60
2022-12-03T04:52:00.261Z,7.20
2022-12-03T04:53:00.241Z,7.80
2022-12-03T04:54:00.484Z,7.70
2022-12-03T04:55:00.226Z,7.80
2022-12-03T04:56:00.209Z,7.00
2022-12-03T04:57:00.188Z,7.60
2022-12-03T04:58:00.406Z,7.40
2022-12-03T04:59:00.384Z,7.00
2022-12-03T05:00:00.400Z,7.90
2022-12-03T05:01:00.199Z,8.40
2022-12-03T05:02:00.192Z,8.40
2022-12-03T05:03:00.238Z,7.30
2022-12-03T05:04:00.345Z,8.00
2022-12-03T05:05:00.111Z,7.80
2022-12-03T05:06:00.304Z,7.90
2022-12-03T05:07:00.079Z,7.30
2022-12-03T05:08:00.155Z,7.60
2022-12-03T05:09:00.045Z,7.40
2022-12-03T05:10:00.033Z,6.90
2022-12-03T05:11:00.038Z,7.90
2022-12-03T05:12:00.050Z,7.10
2022-12-03T05:13:00.007Z,7.70
2022-12-03T05:13:59.985Z,7.00
2022-12-03T05:14:59.973Z,7.20
2022-12-03T05:16:00.183Z,7.30
2022-12-03T05:17:00.064Z,8.00
2022-12-03T05:18:00.166Z,7.50
2022-12-03T05:18:59.930Z,8.40
2022-12-03T05:19:59.912Z,8.40
2022-12-03T05:21:00.110Z,7.70
2022-12-03T05:21:59.881Z,7.30
2022-12-03T05:22:59.878Z,7.90
2022-12-03T05:23:59.891Z,8.10
2022-12-03T05:24:59.840Z,7.80
2022-12-03T05:26:00.031Z,7.50
2022-12-03T05:26:59.819Z,7.60
2022-12-03T05:27:59.810Z,7.60
2022-12-03T05:28:59.798Z,8.00
2022-12-03T05:29:59.797Z,7.40
2022-12-03T05:30:59.865Z,7.90
2022-12-03T05:31:59.977Z,7.70
2022-12-03T05:32:59.779Z,7.90
2022-12-03T05:33:59.743Z,7.30
2022-12-03T05:34:59.727Z,7.60
2022-12-03T05:35:59.956Z,8.00
2022-12-03T05:36:59.731Z,7.20
2022-12-03T05:37:59.726Z,7.90
2022-12-03T05:38:59.884Z,7.70
2022-12-03T05:39:59.671Z,8.20
2022-12-03T05:40:59.666Z,7.90
2022-12-03T05:41:59.636Z,8.10
2022-12-03T05:42:59.626Z,7.50
2022-12-03T05:43:59.836Z,7.70
2022-12-03T05:44:59.606Z,7.70
2022-12-03T05:45:59.599Z,7.50
2022-12-03T05:46:59.575Z,7.70
2022-12-03T05:47:59.564Z,8.10
2022-12-03T05:48:59.544Z,8.00
2022-12-03T05:49:59.583Z,7.80
2022-12-03T05:50:59.544Z,8.30
2022-12-03T05:51:59.504Z,7.40
2022-12-03T05:52:59.502Z,7.60
2022-12-03T05:53:59.484Z,7.80
2022-12-03T05:54:59.693Z,6.60
2022-12-03T05:55:59.461Z,7.40
2022-12-03T05:56:59.451Z,7.80
2022-12-03T05:57:59.440Z,7.70
2022-12-03T05:58:59.433Z,7.60
2022-12-03T05:59:59.440Z,7.60
2022-12-03T06:00:59.429Z,7.70
2022-12-03T06:01:59.507Z,7.50
2022-12-03T06:02:59.703Z,7.70
2022-12-03T06:03:59.404Z,8.20
2022-12-03T06:04:59.569Z,8.30
2022-12-03T06:05:59.336Z,8.20
2022-12-03T06:06:59.329Z,7.90
2022-12-03T06:07:59.361Z,8.00
2022-12-03T06:08:59.307Z,8.10
2022-12-03T06:09:59.498Z,7.90
2022-12-03T06:10:59.278Z,7.70
2022-12-03T06:11:59.266Z,7.60
2022-12-03T06:12:59.470Z,7.70
2022-12-03T06:13:59.246Z,8.30
2022-12-03T06:14:59.449Z,8.00
2022-12-03T06:15:59.293Z,8.10
2022-12-03T06:16:59.206Z,7.90
2022-12-03T06:17:59.190Z,8.00
2022-12-03T06:18:59.179Z,7.60
2022-12-03T06:19:59.376Z,7.90
2022-12-03T06:20:59.155Z,7.70
2022-12-03T06:21:59.184Z,7.80
2022-12-03T06:22:59.196Z,8.00
2022-12-03T06:23:59.126Z,8.30
2022-12-03T06:25:04.858Z,8.70
2022-12-03T06:26:00.092Z,8.50
2022-12-03T06:26:59.093Z,7.50
2022-12-03T06:27:59.062Z,7.30
2022-12-03T06:28:59.277Z,7.30
2022-12-03T06:29:59.042Z,8.50
2022-12-03T06:30:59.073Z,8.00
2022-12-03T06:31:59.033Z,7.60
2022-12-03T06:32:59.021Z,7.00
2022-12-03T06:33:59.002Z,7.00
2022-12-03T06:34:59.193Z,7.50
2022-12-03T06:35:58.963Z,7.10
2022-12-03T06:36:58.998Z,8.20
2022-12-03T06:37:59.050Z,7.00
2022-12-03T06:38:58.931Z,7.20
2022-12-03T06:39:58.943Z,8.20
2022-12-03T06:40:58.910Z,7.60
2022-12-03T06:41:58.892Z,7.70
2022-12-03T06:42:58.896Z,8.60
2022-12-03T06:43:58.879Z,7.60
2022-12-03T06:44:59.079Z,7.10
2022-12-03T06:45:59.012Z,8.00
2022-12-03T06:46:58.890Z,8.10
2022-12-03T06:47:58.841Z,7.40
2022-12-03T06:48:58.819Z,7.30
2022-12-03T06:49:58.797Z,6.90
2022-12-03T06:50:58.792Z,7.60
2022-12-03T06:51:58.769Z,7.00
2022-12-03T06:52:58.776Z,7.40
2022-12-03T06:53:58.738Z,7.90
2022-12-03T06:54:58.736Z,6.80
2022-12-03T06:55:58.728Z,8.20
2022-12-03T06:56:58.707Z,7.10
2022-12-03T06:57:58.718Z,7.60
2022-12-03T06:58:58.687Z,7.10
2022-12-03T06:59:58.677Z,7.50
2022-12-03T07:00:58.658Z,7.70
2022-12-03T07:01:58.876Z,7.50
2022-12-03T07:02:58.758Z,7.60
2022-12-03T07:03:58.624Z,8.20
2022-12-03T07:04:59.002Z,7.40
2022-12-03T07:05:58.804Z,8.20
2022-12-03T07:06:58.585Z,7.20
2022-12-03T07:07:58.630Z,7.30
2022-12-03T07:08:58.584Z,8.40
2022-12-03T07:09:58.550Z,6.80
2022-12-03T07:10:58.554Z,7.20
2022-12-03T07:11:58.515Z,7.80
2022-12-03T07:12:58.521Z,7.90
2022-12-03T07:14:03.189Z,7.50
2022-12-03T07:14:59.483Z,7.60
2022-12-03T07:15:58.757Z,7.90
2022-12-03T07:16:58.452Z,7.50
2022-12-03T07:17:58.451Z,7.20
2022-12-03T07:18:58.450Z,8.50
2022-12-03T07:19:58.418Z,6.70
2022-12-03T07:20:58.411Z,8.40
2022-12-03T07:21:58.391Z,7.60
2022-12-03T07:22:58.408Z,7.70
2022-12-03T07:23:58.382Z,7.90
2022-12-03T07:24:58.357Z,7.60
2022-12-03T07:25:58.370Z,7.40
2022-12-03T07:26:58.339Z,7.90
2022-12-03T07:27:58.328Z,8.30
2022-12-03T07:28:58.308Z,8.00
2022-12-03T07:29:58.521Z,7.10
2022-12-03T07:30:58.324Z,7.80
2022-12-03T07:31:58.277Z,8.20
2022-12-03T07:32:58.292Z,8.40
2022-12-03T07:33:58.260Z,8.40
2022-12-03T07:34:58.336Z,7.80
2022-12-03T07:35:58.226Z,7.50
2022-12-03T07:36:58.524Z,8.00
2022-12-03T07:37:58.198Z,7.50
2022-12-03T07:38:58.397Z,8.70
2022-12-03T07:39:58.175Z,8.10
2022-12-03T07:40:58.248Z,7.80
2022-12-03T07:41:58.157Z,7.80
2022-12-03T07:42:58.171Z,8.40
2022-12-03T07:43:58.133Z,8.00
2022-12-03T07:44:58.114Z,8.70
2022-12-03T07:45:58.343Z,8.00
2022-12-03T07:46:58.149Z,8.40
2022-12-03T07:47:58.108Z,8.00
2022-12-03T07:48:58.112Z,7.40
2022-12-03T07:49:58.044Z,7.90
2022-12-03T07:50:58.040Z,8.00
2022-12-03T07:51:58.023Z,8.00
2022-12-03T07:52:58.020Z,7.80
2022-12-03T07:53:58.002Z,8.30
2022-12-03T07:54:58.024Z,8.00
2022-12-03T07:55:57.971Z,8.60
2022-12-03T07:57:01.458Z,8.90
2022-12-03T07:57:58.129Z,8.80
2022-12-03T07:58:57.943Z,8.40
2022-12-03T07:59:57.931Z,7.80
2022-12-03T08:00:58.008Z,8.30
2022-12-03T08:01:58.167Z,7.70
2022-12-03T08:02:57.890Z,8.20
2022-12-03T08:03:57.880Z,8.90
2022-12-03T08:04:57.860Z,8.90
2022-12-03T08:05:57.890Z,7.40
2022-12-03T08:06:57.840Z,8.40
2022-12-03T08:07:57.868Z,8.60
2022-12-03T08:08:57.811Z,7.90
2022-12-03T08:09:57.798Z,8.00
2022-12-03T08:10:57.818Z,8.00
2022-12-03T08:11:57.981Z,7.70
2022-12-03T08:12:57.770Z,8.20
2022-12-03T08:13:57.761Z,8.10
2022-12-03T08:14:57.736Z,8.00
2022-12-03T08:15:57.956Z,7.80
2022-12-03T08:16:58.005Z,8.90
2022-12-03T08:17:57.951Z,8.80
2022-12-03T08:18:57.691Z,7.80
2022-12-03T08:19:57.673Z,8.40
2022-12-03T08:20:57.666Z,8.50
2022-12-03T08:22:01.253Z,9.80
2022-12-03T08:22:57.640Z,8.20
2022-12-03T08:23:57.635Z,8.70
2022-12-03T08:24:57.613Z,8.30
2022-12-03T08:25:57.604Z,8.30
2022-12-03T08:26:57.786Z,8.00
2022-12-03T08:27:57.787Z,8.10
2022-12-03T08:28:57.563Z,8.00
2022-12-03T08:29:57.544Z,8.70
2022-12-03T08:30:57.534Z,7.80
2022-12-03T08:31:57.785Z,8.50
2022-12-03T08:32:57.530Z,8.50
2022-12-03T08:33:57.502Z,8.00
2022-12-03T08:34:57.484Z,7.60
2022-12-03T08:35:57.482Z,8.70
2022-12-03T08:36:57.490Z,8.70
2022-12-03T08:37:57.671Z,8.30
2022-12-03T08:38:57.631Z,8.40
2022-12-03T08:39:57.435Z,8.30
2022-12-03T08:40:57.433Z,7.70
2022-12-03T08:41:57.400Z,7.80
2022-12-03T08:42:57.408Z,7.60
2022-12-03T08:43:57.390Z,8.20
2022-12-03T08:44:57.542Z,8.20
2022-12-03T08:45:57.413Z,7.60
2022-12-03T08:46:57.367Z,8.60
2022-12-03T08:47:57.550Z,8.90
2022-12-03T08:48:57.336Z,8.40
2022-12-03T08:49:57.314Z,8.10
2022-12-03T08:50:57.287Z,8.30
2022-12-03T08:51:57.288Z,8.30
2022-12-03T08:52:57.289Z,7.40
2022-12-03T08:54:01.533Z,7.90
2022-12-03T08:54:58.245Z,8.80
2022-12-03T08:55:57.237Z,8.30
2022-12-03T08:56:57.220Z,9.10
2022-12-03T08:57:57.436Z,9.00
2022-12-03T08:58:57.185Z,8.70
2022-12-03T08:59:57.217Z,7.90
2022-12-03T09:00:57.235Z,9.10
2022-12-03T09:01:57.176Z,9.40
2022-12-03T09:02:57.146Z,8.20
2022-12-03T09:03:57.207Z,8.20
2022-12-03T09:04:57.125Z,8.40
2022-12-03T09:05:57.116Z,8.80
2022-12-03T09:06:57.294Z,8.60
2022-12-03T09:07:57.137Z,9.30
2022-12-03T09:08:57.063Z,8.70
2022-12-03T09:09:57.069Z,8.40
2022-12-03T09:10:57.061Z,8.90
2022-12-03T09:11:57.034Z,8.80
2022-12-03T09:12:57.023Z,8.90
2022-12-03T09:13:57.004Z,9.00
2022-12-03T09:14:57.242Z,9.70
2022-12-03T09:15:56.981Z,8.90
2022-12-03T09:16:57.014Z,9.30
2022-12-03T09:17:56.961Z,9.00
2022-12-03T09:18:56.943Z,8.40
2022-12-03T09:19:56.970Z,8.80
2022-12-03T09:20:56.921Z,8.80
2022-12-03T09:21:56.911Z,9.20
2022-12-03T09:22:56.899Z,8.50
2022-12-03T09:23:56.889Z,8.70
2022-12-03T09:24:56.915Z,8.50
2022-12-03T09:25:56.878Z,9.00
2022-12-03T09:26:56.842Z,9.40
2022-12-03T09:27:56.835Z,8.20
2022-12-03T09:28:56.819Z,9.40
2022-12-03T09:29:56.810Z,8.20
2022-12-03T09:30:57.052Z,8.00
2022-12-03T09:31:57.010Z,8.20
2022-12-03T09:32:56.790Z,9.10
2022-12-03T09:33:56.764Z,9.30
2022-12-03T09:34:56.977Z,9.30
2022-12-03T09:35:56.737Z,9.00
2022-12-03T09:36:56.746Z,8.60
2022-12-03T09:37:56.703Z,9.00
2022-12-03T09:38:56.718Z,8.20
2022-12-03T09:39:56.685Z,8.30
2022-12-03T09:40:56.715Z,9.00
2022-12-03T09:41:56.683Z,8.60
2022-12-03T09:42:56.643Z,8.50
2022-12-03T09:44:05.154Z,10.00
2022-12-03T09:44:57.613Z,8.90
2022-12-03T09:45:56.668Z,8.50
2022-12-03T09:46:56.591Z,8.50
2022-12-03T09:47:56.605Z,9.10
2022-12-03T09:48:56.581Z,9.00
2022-12-03T09:49:56.881Z,8.70
2022-12-03T09:50:56.781Z,9.70
2022-12-03T09:51:56.760Z,8.80
2022-12-03T09:52:56.522Z,8.90
2022-12-03T09:53:56.505Z,8.70
2022-12-03T09:54:56.703Z,9.40
2022-12-03T09:55:56.482Z,8.90
2022-12-03T09:56:56.488Z,8.80
2022-12-03T09:57:56.499Z,8.90
2022-12-03T09:58:56.447Z,8.40
2022-12-03T09:59:56.458Z,8.90
2022-12-03T10:00:56.490Z,7.70
2022-12-03T10:01:56.470Z,8.80
2022-12-03T10:02:56.413Z,9.10
2022-12-03T10:03:56.379Z,9.20
2022-12-03T10:04:57.077Z,8.10
2022-12-03T10:05:56.358Z,8.30
2022-12-03T10:06:56.377Z,9.60
2022-12-03T10:07:56.391Z,8.90
2022-12-03T10:08:56.341Z,8.50
2022-12-03T10:09:56.438Z,8.20
2022-12-03T10:10:56.299Z,9.10
2022-12-03T10:11:56.500Z,8.00
2022-12-03T10:12:56.278Z,8.30
2022-12-03T10:13:56.262Z,8.70
2022-12-03T10:14:56.444Z,8.80
2022-12-03T10:15:56.237Z,7.90
2022-12-03T10:16:56.300Z,8.00
2022-12-03T10:17:56.204Z,8.00
2022-12-03T10:18:56.190Z,8.40
2022-12-03T10:19:56.429Z,8.70
2022-12-03T10:20:56.167Z,8.30
2022-12-03T10:21:56.373Z,8.40
2022-12-03T10:22:56.144Z,9.20
2022-12-03T10:23:56.142Z,8.90
2022-12-03T10:24:56.122Z,9.30
2022-12-03T10:25:56.123Z,7.80
2022-12-03T10:26:56.343Z,8.90
2022-12-03T10:27:56.084Z,8.40
2022-12-03T10:28:56.082Z,8.40
2022-12-03T10:29:56.066Z,8.90
2022-12-03T10:30:56.099Z,9.70
2022-12-03T10:31:56.250Z,8.20
2022-12-03T10:32:56.023Z,8.70
2022-12-03T10:33:56.011Z,8.40
2022-12-03T10:34:56.246Z,8.40
2022-12-03T10:35:55.982Z,8.50
2022-12-03T10:36:55.991Z,9.00
2022-12-03T10:37:56.170Z,8.90
2022-12-03T10:38:55.942Z,8.00
2022-12-03T10:39:56.602Z,8.50
2022-12-03T10:40:55.919Z,9.10
2022-12-03T10:41:55.922Z,9.50
2022-12-03T10:42:56.109Z,8.50
2022-12-03T10:43:55.887Z,9.10
2022-12-03T10:44:56.057Z,7.90
2022-12-03T10:46:00.425Z,8.60
2022-12-03T10:46:57.181Z,8.40
2022-12-03T10:47:56.151Z,9.00
2022-12-03T10:48:55.825Z,8.20
2022-12-03T10:49:55.847Z,9.20
2022-12-03T10:50:55.796Z,8.90
2022-12-03T10:51:55.786Z,8.80
2022-12-03T10:52:55.795Z,8.70
2022-12-03T10:53:55.766Z,8.00
2022-12-03T10:54:56.186Z,9.00
2022-12-03T10:55:55.735Z,8.00
2022-12-03T10:56:55.722Z,8.70
2022-12-03T10:57:55.938Z,8.70
2022-12-03T10:58:55.721Z,8.50
2022-12-03T10:59:55.694Z,8.60
2022-12-03T11:00:55.675Z,7.90
2022-12-03T11:01:55.704Z,9.20
2022-12-03T11:02:57.140Z,8.30
2022-12-03T11:03:55.748Z,8.20
2022-12-03T11:04:55.874Z,8.90
2022-12-03T11:05:55.690Z,8.20
2022-12-03T11:06:55.691Z,8.90
2022-12-03T11:07:55.708Z,9.30
2022-12-03T11:08:59.452Z,8.30
2022-12-03T11:09:56.602Z,8.20
2022-12-03T11:10:55.551Z,9.50
2022-12-03T11:11:55.541Z,8.70
2022-12-03T11:12:55.529Z,8.70
2022-12-03T11:13:55.711Z,9.00
2022-12-03T11:14:55.875Z,9.40
2022-12-03T11:15:55.568Z,9.10
2022-12-03T11:16:55.469Z,8.80
2022-12-03T11:17:55.470Z,8.60
2022-12-03T11:18:55.560Z,8.40
2022-12-03T11:19:55.437Z,8.90
2022-12-03T11:20:55.418Z,9.90
2022-12-03T11:21:55.422Z,8.90
2022-12-03T11:22:55.612Z,8.50
2022-12-03T11:23:55.402Z,8.80
2022-12-03T11:24:55.632Z,8.80
2022-12-03T11:25:55.369Z,8.70
2022-12-03T11:26:55.347Z,8.70
2022-12-03T11:27:55.537Z,8.40
2022-12-03T11:28:55.326Z,8.30
2022-12-03T11:29:55.507Z,8.70
2022-12-03T11:30:55.365Z,9.00
2022-12-03T11:31:55.297Z,9.10
2022-12-03T11:32:55.276Z,8.60
2022-12-03T11:33:55.266Z,8.30
2022-12-03T11:34:55.659Z,8.20
2022-12-03T11:35:55.252Z,8.00
2022-12-03T11:37:01.844Z,8.80
2022-12-03T11:37:56.215Z,8.60
2022-12-03T11:38:55.415Z,8.60
2022-12-03T11:39:55.585Z,8.80
2022-12-03T11:40:55.174Z,8.10
2022-12-03T11:41:55.163Z,8.50
2022-12-03T11:42:55.163Z,8.30
2022-12-03T11:43:55.142Z,8.70
2022-12-03T11:44:55.412Z,8.80
2022-12-03T11:45:59.642Z,8.40
2022-12-03T11:46:56.189Z,8.20
2022-12-03T11:47:55.091Z,9.10
2022-12-03T11:48:55.081Z,7.90
2022-12-03T11:49:55.667Z,8.50
2022-12-03T11:50:55.074Z,8.70
2022-12-03T11:51:55.047Z,8.50
2022-12-03T11:52:55.070Z,8.40
2022-12-03T11:53:55.011Z,8.20
2022-12-03T11:54:54.999Z,8.20
2022-12-03T11:55:54.994Z,8.90
2022-12-03T11:56:54.980Z,8.30
2022-12-03T11:57:54.971Z,8.90
2022-12-03T11:58:55.178Z,8.60
2022-12-03T11:59:55.131Z,8.60
2022-12-03T12:00:55.139Z,9.30
2022-12-03T12:01:54.919Z,8.60
2022-12-03T12:02:54.952Z,9.00
2022-12-03T12:03:55.021Z,8.40
2022-12-03T12:04:54.877Z,8.80
2022-12-03T12:05:54.868Z,9.30
2022-12-03T12:06:54.847Z,8.60
2022-12-03T12:07:54.931Z,8.30
2022-12-03T12:08:54.836Z,8.40
2022-12-03T12:09:55.504Z,8.10
2022-12-03T12:10:54.825Z,9.10
2022-12-03T12:11:55.026Z,8.20
2022-12-03T12:12:55.412Z,9.20
2022-12-03T12:13:54.781Z,8.90
2022-12-03T12:14:54.745Z,8.40
2022-12-03T12:15:54.801Z,8.80
2022-12-03T12:16:54.755Z,8.70
2022-12-03T12:17:54.718Z,8.70
2022-12-03T12:18:55.533Z,8.60
2022-12-03T12:19:54.785Z,9.80
2022-12-03T12:20:54.673Z,9.10
2022-12-03T12:21:54.677Z,8.20
2022-12-03T12:22:54.656Z,8.20
2022-12-03T12:23:54.640Z,9.30
2022-12-03T12:24:54.646Z,9.30
2022-12-03T12:25:54.705Z,8.90
2022-12-03T12:26:54.605Z,8.60
2022-12-03T12:27:54.591Z,8.80
2022-12-03T12:28:54.571Z,9.40
2022-12-03T12:29:54.854Z,8.80
2022-12-03T12:30:54.552Z,8.40
2022-12-03T12:31:54.652Z,9.20
2022-12-03T12:32:54.759Z,9.30
2022-12-03T12:33:55.340Z,8.50
2022-12-03T12:34:54.498Z,9.00
2022-12-03T12:35:54.489Z,8.00
2022-12-03T12:36:54.476Z,8.70
2022-12-03T12:37:59.540Z,9.00
2022-12-03T12:38:55.458Z,9.10
2022-12-03T12:39:54.725Z,8.70
2022-12-03T12:40:54.426Z,8.10
2022-12-03T12:41:54.408Z,8.60
2022-12-03T12:42:54.658Z,8.80
2022-12-03T12:43:54.390Z,9.20
2022-12-03T12:44:54.369Z,8.40
2022-12-03T12:45:54.598Z,9.30
2022-12-03T12:46:54.379Z,9.30
2022-12-03T12:47:54.417Z,8.80
2022-12-03T12:48:59.310Z,9.20
2022-12-03T12:49:55.548Z,8.90
2022-12-03T12:50:54.297Z,8.90
2022-12-03T12:51:54.319Z,8.80
2022-12-03T12:52:54.284Z,9.50
2022-12-03T12:53:54.279Z,8.70
2022-12-03T12:54:54.295Z,8.90
2022-12-03T12:55:54.265Z,8.70
2022-12-03T12:56:54.222Z,9.00
2022-12-03T12:57:54.214Z,9.10
2022-12-03T12:58:54.216Z,8.90
2022-12-03T12:59:54.387Z,8.60
2022-12-03T13:00:54.304Z,8.80
2022-12-03T13:01:54.241Z,8.70
2022-12-03T13:02:54.250Z,9.00
2022-12-03T13:03:54.165Z,8.70
2022-12-03T13:04:54.152Z,9.20
2022-12-03T13:05:54.140Z,8.40
2022-12-03T13:06:54.105Z,8.70
2022-12-03T13:07:54.132Z,8.20
2022-12-03T13:08:54.327Z,9.10
2022-12-03T13:09:54.425Z,9.40
2022-12-03T13:10:54.053Z,8.20
2022-12-03T13:11:54.050Z,9.00
2022-12-03T13:12:54.032Z,9.20
2022-12-03T13:13:54.030Z,9.30
2022-12-03T13:14:54.027Z,9.30
2022-12-03T13:15:54.054Z,8.10
2022-12-03T13:16:54.077Z,9.30
2022-12-03T13:17:53.959Z,8.80